Rochester Hills, Michigan
Current Conditions -  °F | °C
As of 8:35 PM on Tuesday 27 Jan 2015 (Local Time) from KVLL Reporting Station
Clear Clear  
Wind Chill: 15°   Ceiling: Unl
Heat Index: 22°   Visibility: 10mi
Dew Point: 11°   Wind: 5mph
Humidity: 63%   Direction: 340°NNW
Pressure: 30.23"   Gusts: NA
Location:  42.66°N, 83.16°W
Report Text: KVLL 280135Z AUTO 34004KT 10SM CLR M06/M12 A3023 RMK AO2 T10581118
Loading
Personal Weather Stations






























Interactive Weather Map New forecast layout! Learn more

10-Day Weather Forecast

Advertisements
Track Severe Weather on mobile